This is the latest recevied weather packets stored in our database for station/object KD7AWQ. If no packets are shown the sender has not sent any weather packets the latest 1 day(s).
| Time | Temp. | Humidity | Pressure | Rain* | Wind** | Luminosity | Snow |
|---|---|---|---|---|---|---|---|
| 1778019602 | 17.78° C | 42% | 1179.3 hPa | 0 mm | 6.71 m/s, 284° | 197 W/m² | - |
| 1778019300 | 18.33° C | 43% | 1179.4 hPa | 0 mm | 5.36 m/s, 266° | 247 W/m² | - |
| 1778018997 | 19.44° C | 42% | 1179.7 hPa | 0 mm | 8.05 m/s, 284° | 327 W/m² | - |
| 1778018694 | 19.44° C | 42% | 1179.2 hPa | 0 mm | 4.02 m/s, 282° | 1007 W/m² | - |
| 1778018391 | 18.89° C | 44% | 1179.6 hPa | 0 mm | 4.92 m/s, 261° | 835 W/m² | - |
| 1778018089 | 18.89° C | 42% | 1179.3 hPa | 0 mm | 5.81 m/s, 298° | 959 W/m² | - |
| 1778017787 | 18.33° C | 42% | 1179.4 hPa | 0 mm | 4.02 m/s, 316° | 1062 W/m² | - |
| 1778017485 | 17.78° C | 43% | 1179.8 hPa | 0 mm | 5.36 m/s, 288° | 246 W/m² | - |
| 1778017181 | 17.78° C | 45% | 1179.6 hPa | 0 mm | 4.02 m/s, 278° | 157 W/m² | - |
| 1778016879 | 18.33° C | 45% | 1179.3 hPa | 0 mm | 5.36 m/s, 262° | 98 W/m² | - |
| 1778016575 | 18.89° C | 40% | 1179.6 hPa | 0 mm | 5.81 m/s, 283° | 122 W/m² | - |
| 1778016272 | 20° C | 39% | 1179.3 hPa | 0 mm | 6.71 m/s, 270° | 285 W/m² | - |
| 1778015968 | 19.44° C | 36% | 1179.6 hPa | 0 mm | 4.92 m/s, 224° | 1129 W/m² | - |
| 1778015666 | 19.44° C | 37% | 1179.7 hPa | 0 mm | 7.6 m/s, 251° | 1138 W/m² | - |
| 1778015362 | 20° C | 36% | 1180 hPa | 0 mm | 6.26 m/s, 289° | 313 W/m² | - |
| 1778015063 | 20° C | 39% | 1180.2 hPa | 0 mm | 4.02 m/s, 224° | 1142 W/m² | - |
| 1778014756 | 18.89° C | 42% | 1180.2 hPa | 0 mm | 4.47 m/s, 293° | 1093 W/m² | - |
| 1778014455 | 17.78° C | 46% | 1180.4 hPa | 0 mm | 4.47 m/s, 298° | 1057 W/m² | - |
| 1778014151 | 18.33° C | 44% | 1180.1 hPa | 0 mm | 6.71 m/s, 269° | 244 W/m² | - |
| 1778013849 | 18.33° C | 43% | 1180.3 hPa | 0 mm | 5.36 m/s, 277° | 397 W/m² | - |
| 1778013546 | 18.33° C | 44% | 1180.2 hPa | 0 mm | 4.92 m/s, 290° | 474 W/m² | - |
| 1778013242 | 18.89° C | 42% | 1180.3 hPa | 0 mm | 5.81 m/s, 288° | 220 W/m² | - |
| 1778012939 | 18.33° C | 41% | 1180.4 hPa | 0 mm | 6.71 m/s, 274° | 1273 W/m² | - |
| 1778012635 | 20° C | 32% | 1180.3 hPa | 0 mm | 7.15 m/s, 219° | 143 W/m² | - |
| 1778012332 | 18.89° C | 40% | 1180.2 hPa | 0 mm | 5.81 m/s, 282° | 1186 W/m² | - |
* Rain latest hour (hover to see other rain measurements)
** Current wind speed in m/s (hover to see current wind gust speed)